Plainfield, Vermont
Current Conditions -  °F | °C
As of 9:51 PM on Tuesday 25 Nov 2014 (Local Time) from KMPV Reporting Station
Clear Clear  
Wind Chill: 34°   Ceiling: Unl
Heat Index: 40°   Visibility: 10mi
Dew Point: 24°   Wind: 8mph
Humidity: 53%   Direction: 260°W
Pressure: 30.05"   Gusts: NA
Location:  44.28°N, 72.43°W
Report Text: KMPV 260251Z AUTO 26007KT 10SM CLR 04/M04 A3005 RMK AO2 SLP184 T00441044 53020
Loading
Personal Weather Stations






























Interactive Weather Map New forecast layout! Learn more

10-Day Weather Forecast

Advertisements
Track Severe Weather on mobile